Lebanon, OR (97355)

11:31 AM PDT on March 28, 2017 (GMT -0700)
W Rose St | | Change Station

Elev 351 ft 44.54 °N, 122.91 °W | Updated 1 second ago

Mostly Cloudy
Mostly Cloudy
56.8 °F
Feels Like 56.8 °F
N
3.8
Wind Variable Wind from South
Gusts 9.2 mph

Today
High -- | Low -- °F
--% Chance of Precip.
Yesterday
High -- | Low -- °F
Precip. -- in
Pressure 30.34 in
Visibility 10.0 miles
Clouds Mostly Cloudy 9500 ft
Dew Point 45 °F
Humidity 64%
Rainfall 0.00 in
Snow Depth Not available.
6:59 AM 7:34 PM
New Moon, 1% visible
METAR KCVO 281815Z 17006KT 10SM BKN095 11/06 A3034 RMK AO1
Pressure 30.34 in
Visibility 10.0 miles
Clouds Mostly Cloudy 9500 ft
Dew Point 45 °F
Humidity 64%
Rainfall 0.00 in
Snow Depth Not available.
6:59 AM 7:34 PM
New Moon, 1% visible
METAR KCVO 281815Z 17006KT 10SM BKN095 11/06 A3034 RMK AO1

Get Severe Weather Alerts

Thanks for signing up!

Be on the lookout for a verification email in your inbox.

You'll start receiving the daily forecast at 8 AM.

×

10-Day Weather Forecast

Almanac

Astronomy

Mar. 28, 2017 Rise Set
Actual Time
Civil Twilight
Nautical Twilight
Astronomical Twilight
Moon
Length of Visible Light
Length of Day
Tomorrow will be .
, % of the Moon is Illuminated

Today's Extremes

State Highs State Lows

Community

WunderPhotos

Upload Photos

1,962,540 photos uploaded!

WunderBlog® & News

Nearby

Air Quality

  Air Quality AQ Index Pollutant
Not available.

Snow Depth

Station Depth Elevation

Earthquake Activity

City Distance Mag. Time & Date
Minimum magnitude displayed is 2.5.

Earthquake Activity

City Distance Mag. Time & Date
Minimum magnitude displayed is 2.5.

Coastal Water Temperatures

Place Temperature

Stations

Nearby Weather Stations

Station Location Temp. Windchill Dew Point Humidity Wind Precip. Elev Updated Type
                   

Watches & Warnings

There are currently no watches in effect.